Terminal Aerodrome Forecast
Issued by NWS

Home | Current Version | Previous Version | Text Only | Print | Product List | Glossary On
Versions: 1 2 3 4 5 6 7 8 9 10 11 12 13 14 15
000
FTUS45 KFGZ 092300 AAA
TAFSEZ
TAF AMD
KSEZ 092344Z 1000/1024 08007KT P6SM BKN070 BKN090
     FM100400 04006KT P6SM FEW080 BKN200
     FM101800 22007KT P6SM SCT070 BKN110
      TEMPO 1020/1024 5SM -TSRA BKN070CB=

USA.gov is the U.S. government's official web portal to all federal, state and local government web resources and services.